Time;durP1;ratioP1;P1;durP2;ratioP2;P2;SDS_P1;SDS_P2;PMS_P1;PMS_P2;Temp;Humidity;BMP_temperature;BMP_pressure;BME280_temperature;BME280_humidity;BME280_pressure;Samples;Min_cycle;Max_cycle;Signal;HPM_P1;HPM_P2
2023/02/18 00:01:23;;;;;;;7.93;7.23;;;11.50;99.90;;;;;;5095024;28;20577;-79
2023/02/18 00:03:51;;;;;;;9.43;7.83;;;11.40;99.90;;;;;;5094824;28;20218;-78
2023/02/18 00:06:19;;;;;;;8.23;7.43;;;11.40;99.90;;;;;;5094835;28;20235;-80
2023/02/18 00:08:47;;;;;;;7.87;7.07;;;11.40;99.90;;;;;;5094279;28;20215;-79
2023/02/18 00:11:15;;;;;;;10.13;7.80;;;11.40;99.90;;;;;;5094760;28;20231;-79
2023/02/18 00:13:42;;;;;;;8.13;7.33;;;11.40;99.90;;;;;;5094644;28;20204;-78
2023/02/18 00:16:11;;;;;;;10.07;7.57;;;11.40;99.90;;;;;;5094593;28;20210;-78
2023/02/18 00:18:40;;;;;;;8.77;7.93;;;11.40;99.90;;;;;;5090939;28;20202;-80
2023/02/18 00:21:08;;;;;;;10.53;8.63;;;11.40;99.90;;;;;;5085039;28;20201;-78
2023/02/18 00:23:35;;;;;;;9.93;8.07;;;11.40;99.90;;;;;;5094427;28;20199;-79
2023/02/18 00:26:06;;;;;;;8.77;7.80;;;11.40;99.90;;;;;;5093417;28;20239;-79
2023/02/18 00:28:34;;;;;;;9.63;8.10;;;11.40;99.90;;;;;;5094338;28;20208;-80
2023/02/18 00:31:06;;;;;;;12.97;7.77;;;11.30;99.90;;;;;;5093264;28;20208;-78
2023/02/18 00:33:34;;;;;;;11.07;8.87;;;11.40;99.90;;;;;;5073711;28;20200;-79
2023/02/18 00:36:03;;;;;;;10.67;8.00;;;11.30;99.90;;;;;;5089047;28;20201;-79
2023/02/18 00:38:30;;;;;;;9.43;7.20;;;11.40;99.90;;;;;;5094257;28;20213;-79
2023/02/18 00:40:58;;;;;;;7.87;6.93;;;11.40;99.90;;;;;;5094136;28;20201;-81
2023/02/18 00:43:25;;;;;;;8.47;6.80;;;11.30;99.90;;;;;;5093967;28;20210;-79
2023/02/18 00:45:52;;;;;;;11.70;6.73;;;11.30;99.90;;;;;;5094221;28;20238;-81
2023/02/18 00:48:19;;;;;;;7.87;6.37;;;11.30;99.90;;;;;;5093959;28;20205;-79
2023/02/18 00:50:47;;;;;;;7.50;6.70;;;11.40;99.90;;;;;;5090970;28;20215;-79
2023/02/18 00:53:15;;;;;;;8.67;6.17;;;11.40;99.90;;;;;;5073839;28;20229;-80
2023/02/18 00:55:46;;;;;;;7.67;6.27;;;11.20;99.90;;;;;;5077221;28;20202;-79
2023/02/18 00:58:15;;;;;;;7.13;5.90;;;11.30;99.90;;;;;;5093650;28;20689;-79
2023/02/18 01:00:42;;;;;;;6.63;5.97;;;11.30;99.90;;;;;;5093711;28;20203;-80
2023/02/18 01:03:11;;;;;;;5.97;5.43;;;11.30;99.90;;;;;;5093806;28;20201;-81
2023/02/18 01:05:40;;;;;;;10.23;6.43;;;11.20;99.90;;;;;;5093414;28;20704;-80
2023/02/18 01:08:08;;;;;;;7.10;6.03;;;11.20;99.90;;;;;;5093562;28;20207;-79
2023/02/18 01:10:41;;;;;;;7.03;6.33;;;11.30;99.90;;;;;;5079608;28;20202;-79
2023/02/18 01:13:10;;;;;;;9.82;6.28;;;11.20;99.90;;;;;;5093590;28;20442;-77
2023/02/18 01:15:37;;;;;;;6.37;5.83;;;11.20;99.90;;;;;;5086240;28;20210;-79
2023/02/18 01:18:06;;;;;;;8.17;6.43;;;11.20;99.90;;;;;;5073670;28;20214;-81
2023/02/18 01:20:34;;;;;;;7.00;5.87;;;11.20;99.90;;;;;;5093401;28;20252;-79
2023/02/18 01:23:01;;;;;;;6.00;5.50;;;11.20;99.90;;;;;;5093443;28;20209;-79
2023/02/18 01:25:28;;;;;;;5.47;4.97;;;11.20;99.90;;;;;;5084639;28;20243;-81
2023/02/18 01:27:57;;;;;;;5.60;5.13;;;11.10;99.90;;;;;;5089013;28;20191;-80
2023/02/18 01:30:25;;;;;;;5.13;4.73;;;11.10;99.90;;;;;;5092754;28;20573;-80
2023/02/18 01:32:55;;;;;;;4.80;4.40;;;11.10;99.90;;;;;;5093581;28;20218;-81
2023/02/18 01:35:23;;;;;;;4.43;4.10;;;11.10;99.90;;;;;;5092286;28;20211;-79
2023/02/18 01:37:50;;;;;;;5.53;4.93;;;11.10;99.90;;;;;;5088419;28;20875;-80
2023/02/18 01:40:19;;;;;;;4.73;4.20;;;11.30;99.90;;;;;;5082542;28;20230;-80
2023/02/18 01:42:47;;;;;;;4.10;3.80;;;11.10;99.90;;;;;;5086965;28;20202;-79
2023/02/18 01:45:56;;;;;;;3.40;3.10;;;11.00;99.90;;;;;;5092613;28;20219;-81
2023/02/18 01:48:28;;;;;;;3.93;3.57;;;11.10;99.90;;;;;;5072834;28;20218;-80
2023/02/18 01:50:59;;;;;;;3.63;3.43;;;11.00;99.90;;;;;;5079750;28;20213;-79
2023/02/18 01:53:31;;;;;;;4.17;3.87;;;11.00;99.90;;;;;;5080064;28;20665;-79
2023/02/18 01:56:00;;;;;;;4.00;3.80;;;11.00;99.90;;;;;;5093360;28;20256;-79
2023/02/18 01:58:27;;;;;;;4.87;4.17;;;11.00;99.90;;;;;;5092636;28;20202;-81
2023/02/18 02:00:54;;;;;;;4.43;4.13;;;10.90;99.90;;;;;;5092627;28;20214;-81
2023/02/18 02:03:21;;;;;;;4.83;4.47;;;11.00;99.90;;;;;;5087842;28;20218;-82
2023/02/18 02:05:49;;;;;;;4.10;3.80;;;11.00;99.90;;;;;;5084877;28;20226;-80
2023/02/18 02:08:16;;;;;;;4.90;4.50;;;11.00;99.90;;;;;;5079088;28;20736;-82
2023/02/18 02:11:00;;;;;;;4.50;4.20;;;10.90;99.90;;;;;;5092919;28;20571;-77
2023/02/18 02:13:38;;;;;;;4.57;4.17;;;10.90;99.90;;;;;;5092837;28;20213;-80
2023/02/18 02:16:11;;;;;;;4.30;4.00;;;10.90;99.90;;;;;;5091829;28;20207;-80
2023/02/18 02:18:49;;;;;;;5.20;4.67;;;10.90;99.90;;;;;;5085134;28;20200;-80
2023/02/18 02:21:48;;;;;;;4.93;4.57;;;10.90;99.90;;;;;;5091953;28;20563;-80
2023/02/18 02:25:07;;;;;;;4.97;3.90;;;10.80;99.90;;;;;;5090112;28;20206;-80
2023/02/18 02:28:09;;;;;;;4.33;4.00;;;10.80;99.90;;;;;;5092488;28;20208;-80
2023/02/18 02:31:08;;;;;;;4.30;4.00;;;10.90;99.90;;;;;;5082055;28;20213;-80
2023/02/18 02:34:07;;;;;;;4.10;3.77;;;10.80;99.90;;;;;;5092465;28;20649;-83
2023/02/18 02:36:43;;;;;;;4.00;3.80;;;10.80;99.90;;;;;;5079393;28;20202;-82
2023/02/18 02:39:16;;;;;;;3.50;3.30;;;10.80;99.90;;;;;;5081021;28;20205;-81
2023/02/18 02:41:49;;;;;;;3.97;3.67;;;10.80;99.90;;;;;;5093074;28;20208;-83
2023/02/18 02:44:21;;;;;;;4.10;3.90;;;10.80;99.90;;;;;;5092263;28;20431;-82
2023/02/18 02:46:52;;;;;;;3.90;3.60;;;10.80;99.90;;;;;;5078748;28;20707;-83
2023/02/18 02:49:32;;;;;;;5.07;3.60;;;10.80;99.90;;;;;;5093258;28;20205;-82
2023/02/18 02:52:05;;;;;;;4.00;3.30;;;10.80;99.90;;;;;;5076149;28;20199;-80
2023/02/18 02:54:32;;;;;;;3.27;3.00;;;10.70;99.90;;;;;;5084324;28;20216;-84
2023/02/18 02:57:08;;;;;;;4.20;3.80;;;10.70;99.90;;;;;;5096632;28;20208;-83
2023/02/18 02:59:42;;;;;;;2.77;2.57;;;10.70;99.90;;;;;;5096496;28;20208;-82
2023/02/18 03:02:34;;;;;;;2.73;2.53;;;10.60;99.90;;;;;;5096386;28;20654;-81
2023/02/18 03:05:15;;;;;;;3.50;3.17;;;10.60;99.90;;;;;;5096033;28;20213;-81
2023/02/18 03:08:02;;;;;;;3.50;3.20;;;10.70;99.90;;;;;;5085482;28;20310;-81
2023/02/18 03:10:41;;;;;;;2.90;2.70;;;10.70;99.90;;;;;;5091104;28;20208;-81
2023/02/18 03:13:18;;;;;;;3.10;2.90;;;10.60;99.90;;;;;;5089317;28;20202;-79
2023/02/18 03:15:52;;;;;;;3.20;3.00;;;10.70;99.90;;;;;;5084651;28;20205;-82
2023/02/18 03:18:25;;;;;;;3.27;3.07;;;10.70;99.90;;;;;;5096240;28;20197;-79
2023/02/18 03:20:56;;;;;;;2.87;2.60;;;10.70;99.90;;;;;;5086059;28;20207;-78
2023/02/18 03:23:29;;;;;;;2.70;2.50;;;10.60;99.90;;;;;;5093649;28;20203;-80
2023/02/18 03:25:58;;;;;;;2.53;2.43;;;10.60;99.90;;;;;;5096497;28;20219;-79
2023/02/18 03:28:31;;;;;;;2.33;2.23;;;10.60;99.90;;;;;;5095576;28;20224;-79
2023/02/18 03:31:03;;;;;;;2.80;2.65;;;10.60;99.90;;;;;;5095515;28;20905;-80
2023/02/18 03:33:37;;;;;;;2.73;2.43;;;10.60;99.90;;;;;;5082939;28;20217;-79
2023/02/18 03:36:05;;;;;;;2.17;2.07;;;10.60;99.90;;;;;;5095933;28;20201;-81
2023/02/18 03:38:37;;;;;;;2.37;2.17;;;10.70;99.90;;;;;;5096059;28;20209;-80
2023/02/18 03:41:05;;;;;;;2.10;2.00;;;10.70;99.90;;;;;;5095512;28;20206;-81
2023/02/18 03:43:32;;;;;;;2.07;1.97;;;10.60;99.90;;;;;;5095689;28;20213;-80
2023/02/18 03:45:59;;;;;;;2.10;2.00;;;10.60;99.90;;;;;;5095420;28;20221;-80
2023/02/18 03:48:26;;;;;;;2.23;2.13;;;10.60;99.90;;;;;;5095273;28;20292;-80
2023/02/18 03:50:53;;;;;;;2.00;1.90;;;10.60;99.90;;;;;;5091891;28;20203;-81
2023/02/18 03:53:22;;;;;;;2.00;1.90;;;10.60;99.90;;;;;;5085857;28;20206;-80
2023/02/18 03:55:50;;;;;;;2.10;2.00;;;10.60;99.90;;;;;;5095201;28;20250;-81
2023/02/18 03:58:20;;;;;;;1.80;1.70;;;10.70;99.90;;;;;;5095217;28;20213;-81
2023/02/18 04:00:47;;;;;;;1.70;1.60;;;10.70;99.90;;;;;;5080811;28;20200;-82
2023/02/18 04:03:20;;;;;;;1.90;1.80;;;10.70;99.90;;;;;;5083133;28;20206;-84
2023/02/18 04:05:47;;;;;;;2.00;1.90;;;10.60;99.90;;;;;;5095455;28;20200;-84
2023/02/18 04:08:14;;;;;;;1.47;1.47;;;10.60;99.90;;;;;;5095290;28;20228;-82
2023/02/18 04:10:41;;;;;;;1.80;1.70;;;10.60;99.90;;;;;;5094668;28;20198;-83
2023/02/18 04:13:09;;;;;;;1.70;1.53;;;10.60;99.90;;;;;;5094833;28;20193;-82
2023/02/18 04:15:36;;;;;;;2.10;1.90;;;10.70;99.90;;;;;;5094910;28;20209;-84
2023/02/18 04:18:05;;;;;;;1.93;1.83;;;10.60;99.90;;;;;;5094867;28;20244;-84
2023/02/18 04:20:32;;;;;;;1.90;1.80;;;10.60;99.90;;;;;;5087138;28;20300;-83
2023/02/18 04:23:00;;;;;;;2.30;2.20;;;10.70;99.90;;;;;;5089741;28;20201;-84
2023/02/18 04:25:28;;;;;;;1.80;1.70;;;10.60;99.90;;;;;;5085631;28;20203;-82
2023/02/18 04:27:56;;;;;;;2.23;1.93;;;10.60;99.90;;;;;;5090278;28;20229;-82
2023/02/18 04:30:25;;;;;;;1.90;1.80;;;10.60;99.90;;;;;;5094731;28;20208;-83
2023/02/18 04:32:52;;;;;;;1.93;1.83;;;10.60;99.90;;;;;;5094218;28;20645;-84
2023/02/18 04:35:18;;;;;;;1.80;1.70;;;10.60;99.90;;;;;;5086267;28;20212;-82
2023/02/18 04:37:45;;;;;;;1.70;1.60;;;10.60;99.90;;;;;;5074306;28;20210;-83
2023/02/18 04:40:12;;;;;;;1.60;1.53;;;10.60;99.90;;;;;;5083051;28;20201;-83
2023/02/18 04:42:39;;;;;;;1.70;1.60;;;10.60;99.90;;;;;;5093945;28;20546;-82
2023/02/18 04:45:07;;;;;;;1.93;1.83;;;10.60;99.90;;;;;;5094555;28;20197;-82
2023/02/18 04:47:36;;;;;;;1.70;1.60;;;10.50;99.90;;;;;;5094363;28;20213;-81
2023/02/18 04:50:05;;;;;;;1.80;1.70;;;10.50;99.90;;;;;;5094632;28;20185;-83
2023/02/18 04:52:32;;;;;;;1.90;1.80;;;10.50;99.90;;;;;;5094914;28;20205;-82
2023/02/18 04:54:59;;;;;;;1.87;1.77;;;10.50;99.90;;;;;;5094185;28;20594;-80
2023/02/18 04:57:26;;;;;;;2.93;1.80;;;10.50;99.90;;;;;;5094347;28;20197;-83
2023/02/18 04:59:52;;;;;;;1.90;1.80;;;10.50;99.90;;;;;;5083693;28;20198;-81
2023/02/18 05:02:19;;;;;;;2.00;1.80;;;10.50;99.90;;;;;;5091006;28;20208;-81
2023/02/18 05:04:48;;;;;;;2.70;2.03;;;10.40;99.90;;;;;;5094201;28;20213;-81
2023/02/18 05:07:15;;;;;;;2.20;2.10;;;10.40;99.90;;;;;;5093981;28;20702;-82
2023/02/18 05:09:42;;;;;;;3.93;2.23;;;10.40;99.90;;;;;;5093721;28;20647;-79
2023/02/18 05:12:09;;;;;;;2.47;2.27;;;10.40;99.90;;;;;;5093040;28;20233;-82
2023/02/18 05:14:36;;;;;;;3.27;2.47;;;10.30;99.90;;;;;;5094060;28;20215;-81
2023/02/18 05:17:03;;;;;;;5.73;3.37;;;10.50;99.90;;;;;;5093397;28;20201;-81
2023/02/18 05:19:31;;;;;;;3.50;2.43;;;10.20;99.90;;;;;;5081974;28;20571;-81
2023/02/18 05:21:59;;;;;;;3.20;2.60;;;10.30;99.90;;;;;;5092531;28;20197;-82
2023/02/18 05:24:26;;;;;;;4.10;2.10;;;10.30;99.90;;;;;;5093684;28;20586;-81
2023/02/18 05:26:57;;;;;;;6.20;2.30;;;10.30;99.90;;;;;;5087856;28;20229;-82
2023/02/18 05:29:24;;;;;;;5.13;2.30;;;10.30;99.90;;;;;;5087806;28;20322;-82
2023/02/18 05:31:52;;;;;;;8.77;1.80;;;10.30;99.90;;;;;;5094508;28;20208;-81
2023/02/18 05:34:19;;;;;;;8.20;1.90;;;10.20;99.90;;;;;;5093911;28;20216;-81
2023/02/18 05:36:46;;;;;;;6.50;1.93;;;10.20;99.90;;;;;;5094334;28;20212;-82
2023/02/18 05:39:14;;;;;;;9.30;2.20;;;10.30;99.90;;;;;;5096799;28;20221;-79
2023/02/18 05:41:41;;;;;;;6.27;2.00;;;10.30;99.90;;;;;;5096976;28;20667;-82
2023/02/18 05:46:52;;;;;;;9.27;2.10;;;10.50;99.90;;;;;;5095337;28;20228;-79
2023/02/18 05:49:19;;;;;;;8.30;1.93;;;10.50;99.90;;;;;;5093469;28;20193;-82
2023/02/18 05:51:47;;;;;;;9.37;1.97;;;10.50;99.90;;;;;;5093956;28;20591;-83
2023/02/18 05:54:15;;;;;;;11.07;2.37;;;10.60;99.90;;;;;;5093804;28;20208;-82
2023/02/18 05:56:42;;;;;;;6.97;2.03;;;10.60;99.90;;;;;;5093889;28;20209;-82
2023/02/18 05:59:09;;;;;;;8.70;1.77;;;10.60;99.90;;;;;;5093779;28;20205;-82
2023/02/18 06:01:36;;;;;;;4.63;1.50;;;10.60;99.90;;;;;;5093844;28;20660;-82
2023/02/18 06:04:03;;;;;;;10.73;2.27;;;10.60;99.90;;;;;;5093350;28;20201;-82
2023/02/18 06:06:30;;;;;;;10.47;2.30;;;10.60;99.90;;;;;;5095129;28;20202;-82
2023/02/18 06:08:57;;;;;;;9.77;2.63;;;10.60;99.90;;;;;;5093514;28;20201;-82
2023/02/18 06:11:27;;;;;;;13.67;2.27;;;10.60;99.90;;;;;;5094965;28;20229;-83
2023/02/18 06:13:54;;;;;;;8.00;2.20;;;10.60;99.90;;;;;;5089284;28;20227;-81
2023/02/18 06:16:21;;;;;;;6.93;1.97;;;10.60;99.90;;;;;;5087838;28;20204;-83
2023/02/18 06:18:48;;;;;;;8.47;2.17;;;10.60;99.90;;;;;;5093683;28;20205;-78
2023/02/18 06:21:15;;;;;;;7.43;2.00;;;10.60;99.90;;;;;;5093069;28;20564;-83
2023/02/18 06:23:42;;;;;;;11.37;2.30;;;10.50;99.90;;;;;;5092957;28;20200;-83
2023/02/18 06:26:09;;;;;;;9.83;2.83;;;10.50;99.90;;;;;;5097738;28;20201;-82
2023/02/18 06:28:37;;;;;;;10.87;2.07;;;10.50;99.90;;;;;;5096448;28;20257;-80
2023/02/18 06:31:04;;;;;;;16.07;2.10;;;10.60;99.90;;;;;;5084759;28;20202;-80
2023/02/18 06:33:31;;;;;;;12.97;2.60;;;10.60;99.90;;;;;;5098822;28;20211;-81
2023/02/18 06:36:00;;;;;;;10.23;2.70;;;10.70;99.90;;;;;;5096826;28;20201;-81
2023/02/18 06:38:27;;;;;;;12.43;2.40;;;10.60;99.90;;;;;;5096678;28;20679;-80
2023/02/18 06:40:57;;;;;;;8.57;2.00;;;10.70;99.90;;;;;;5098822;28;20201;-81
2023/02/18 06:43:24;;;;;;;7.30;2.20;;;10.70;99.90;;;;;;5099974;28;20213;-77
2023/02/18 06:45:52;;;;;;;16.80;2.70;;;10.70;99.90;;;;;;5099650;28;20216;-78
2023/02/18 06:48:22;;;;;;;10.23;2.07;;;10.60;99.90;;;;;;5089901;28;20234;-79
2023/02/18 06:50:51;;;;;;;13.30;2.57;;;10.60;99.90;;;;;;5093084;28;20236;-80
2023/02/18 06:53:18;;;;;;;13.80;3.13;;;10.60;99.90;;;;;;5096191;28;20201;-81
2023/02/18 06:55:45;;;;;;;13.93;2.93;;;10.60;99.90;;;;;;5094400;28;20206;-83
2023/02/18 06:58:13;;;;;;;12.63;2.53;;;10.60;99.90;;;;;;5088058;28;20680;-82
2023/02/18 07:00:42;;;;;;;15.00;3.00;;;10.60;99.90;;;;;;5085450;28;20208;-84
2023/02/18 07:03:12;;;;;;;8.10;1.67;;;10.70;99.90;;;;;;5100624;28;20704;-82
2023/02/18 07:05:42;;;;;;;10.77;2.27;;;10.70;99.90;;;;;;5099017;28;20699;-81
2023/02/18 07:08:09;;;;;;;12.02;2.83;;;10.70;99.90;;;;;;5092408;28;20455;-82
2023/02/18 07:10:40;;;;;;;8.97;3.00;;;10.70;99.90;;;;;;5099660;28;20217;-82
2023/02/18 07:13:09;;;;;;;4.83;1.63;;;10.70;99.90;;;;;;5098413;28;20232;-80
2023/02/18 07:15:36;;;;;;;6.03;1.80;;;10.70;99.90;;;;;;5093700;28;20198;-79
2023/02/18 07:18:03;;;;;;;13.37;2.60;;;10.70;99.90;;;;;;5095990;28;20253;-79
2023/02/18 07:20:31;;;;;;;12.03;2.40;;;10.80;99.90;;;;;;5096019;28;20190;-79
2023/02/18 07:22:58;;;;;;;9.73;2.90;;;10.80;99.90;;;;;;5096306;28;20197;-83
2023/02/18 07:25:25;;;;;;;11.07;2.23;;;10.70;99.90;;;;;;5096944;28;20684;-79
2023/02/18 07:27:53;;;;;;;10.40;2.20;;;10.70;99.90;;;;;;5083511;28;20243;-80
2023/02/18 07:30:21;;;;;;;12.93;2.20;;;10.80;99.90;;;;;;5095085;28;20213;-79
2023/02/18 07:32:48;;;;;;;7.93;2.07;;;10.80;99.90;;;;;;5095168;28;20198;-83
2023/02/18 07:35:16;;;;;;;9.67;2.03;;;10.80;99.90;;;;;;5096183;28;20201;-84
2023/02/18 07:37:46;;;;;;;11.23;2.50;;;10.80;99.90;;;;;;5083093;28;20206;-83
2023/02/18 07:40:15;;;;;;;9.03;2.47;;;10.80;99.90;;;;;;5095833;28;20212;-84
2023/02/18 07:42:42;;;;;;;13.43;3.03;;;10.70;99.90;;;;;;5096004;28;20212;-83
2023/02/18 07:45:09;;;;;;;10.30;2.87;;;10.80;99.90;;;;;;5089891;28;20201;-82
2023/02/18 07:47:37;;;;;;;11.70;2.60;;;10.80;99.90;;;;;;5095132;28;20245;-82
2023/02/18 07:50:04;;;;;;;14.20;3.40;;;10.80;99.90;;;;;;5094601;28;20686;-79
2023/02/18 07:52:31;;;;;;;17.07;3.17;;;10.70;99.90;;;;;;5092916;28;20668;-81
2023/02/18 07:55:00;;;;;;;11.33;2.17;;;10.70;99.90;;;;;;5087653;28;20568;-79
2023/02/18 07:57:27;;;;;;;13.10;2.83;;;10.80;99.90;;;;;;5087845;28;20247;-79
2023/02/18 07:59:54;;;;;;;9.87;2.33;;;10.80;99.90;;;;;;5086178;28;20201;-82
2023/02/18 08:02:22;;;;;;;10.20;2.47;;;10.80;99.90;;;;;;5093803;28;20205;-80
2023/02/18 08:04:50;;;;;;;7.13;2.20;;;10.90;99.90;;;;;;5088961;28;20208;-81
2023/02/18 08:07:18;;;;;;;10.73;2.60;;;10.80;99.90;;;;;;5094404;28;20221;-80
2023/02/18 08:09:45;;;;;;;9.97;2.23;;;10.80;99.90;;;;;;5095094;28;20205;-82
2023/02/18 08:12:14;;;;;;;12.77;2.53;;;10.90;99.90;;;;;;5095743;28;20228;-81
2023/02/18 08:14:41;;;;;;;7.50;2.30;;;10.90;99.90;;;;;;5095561;28;20209;-79
2023/02/18 08:17:08;;;;;;;15.07;2.27;;;10.90;99.90;;;;;;5094935;28;20207;-80
2023/02/18 08:19:35;;;;;;;7.40;2.47;;;10.90;99.90;;;;;;5094782;28;20213;-79
2023/02/18 08:22:03;;;;;;;5.87;2.00;;;10.90;99.90;;;;;;5094887;28;20288;-79
2023/02/18 08:24:30;;;;;;;9.80;1.87;;;10.90;99.90;;;;;;5095153;28;20667;-79
2023/02/18 08:26:57;;;;;;;8.87;2.00;;;11.00;99.90;;;;;;5094476;28;20216;-79
2023/02/18 08:29:31;;;;;;;6.57;1.77;;;11.00;99.90;;;;;;5096751;28;20197;-79
2023/02/18 08:31:59;;;;;;;10.07;2.03;;;11.00;99.90;;;;;;5096609;28;20193;-80
2023/02/18 08:34:26;;;;;;;6.83;2.00;;;11.00;99.90;;;;;;5095145;28;20199;-79
2023/02/18 08:36:53;;;;;;;7.23;1.73;;;11.10;99.90;;;;;;5094481;28;20207;-81
2023/02/18 08:39:21;;;;;;;5.63;1.50;;;11.10;99.90;;;;;;5083106;28;20211;-81
2023/02/18 08:41:48;;;;;;;9.53;2.53;;;11.10;99.90;;;;;;5093345;28;20205;-79
2023/02/18 08:44:15;;;;;;;6.33;1.67;;;11.10;99.90;;;;;;5093787;28;20209;-79
2023/02/18 08:46:48;;;;;;;11.87;2.27;;;11.00;99.90;;;;;;5080671;28;20199;-78
2023/02/18 08:49:15;;;;;;;3.17;1.63;;;11.10;99.90;;;;;;5096263;28;20236;-78
2023/02/18 08:51:44;;;;;;;8.03;1.57;;;11.00;99.90;;;;;;5082795;28;20197;-81
2023/02/18 08:54:11;;;;;;;6.40;1.60;;;11.00;99.90;;;;;;5079805;28;20203;-79
2023/02/18 08:56:38;;;;;;;6.43;1.87;;;11.10;99.90;;;;;;5093091;28;20217;-80
2023/02/18 08:59:05;;;;;;;8.73;2.20;;;11.10;99.90;;;;;;5078589;28;20218;-83
2023/02/18 09:01:32;;;;;;;7.20;1.73;;;11.20;99.90;;;;;;5080679;28;20203;-76
2023/02/18 09:04:00;;;;;;;8.43;1.53;;;11.20;99.90;;;;;;5092597;28;20203;-82
2023/02/18 09:06:27;;;;;;;4.67;1.23;;;11.20;99.90;;;;;;5092724;28;20214;-79
2023/02/18 09:08:54;;;;;;;7.47;1.93;;;11.20;99.90;;;;;;5079652;28;20310;-82
2023/02/18 09:11:21;;;;;;;7.23;1.90;;;11.10;99.90;;;;;;5092334;28;20246;-80
2023/02/18 09:13:48;;;;;;;8.93;1.87;;;11.20;99.90;;;;;;5088099;28;20574;-82
2023/02/18 09:16:17;;;;;;;5.93;1.60;;;11.40;99.90;;;;;;5093312;28;20213;-80
2023/02/18 09:18:44;;;;;;;6.57;1.83;;;11.20;99.90;;;;;;5093496;28;20207;-82
2023/02/18 09:21:15;;;;;;;6.13;1.60;;;11.20;99.90;;;;;;5093933;28;20206;-81
2023/02/18 09:23:42;;;;;;;5.53;1.77;;;11.20;99.90;;;;;;5092326;28;20303;-80
2023/02/18 09:26:14;;;;;;;9.40;1.80;;;11.30;99.90;;;;;;5093178;28;20202;-84
2023/02/18 09:28:43;;;;;;;7.03;1.80;;;11.30;99.90;;;;;;5093831;28;20593;-84
2023/02/18 09:31:12;;;;;;;8.70;1.80;;;11.30;99.90;;;;;;5084772;28;20203;-85
2023/02/18 09:33:42;;;;;;;8.60;1.80;;;11.40;99.90;;;;;;5089563;28;20195;-86
2023/02/18 09:36:09;;;;;;;9.10;2.07;;;11.40;99.90;;;;;;5093733;28;20206;-85
2023/02/18 09:38:37;;;;;;;5.83;1.90;;;11.40;99.90;;;;;;5092793;28;20554;-84
2023/02/18 09:41:08;;;;;;;5.40;1.93;;;11.60;99.90;;;;;;5092963;28;20213;-83
2023/02/18 09:43:42;;;;;;;8.80;2.27;;;11.50;99.90;;;;;;5053866;28;1092133;-82
2023/02/18 09:46:19;;;;;;;5.20;1.60;;;11.50;99.90;;;;;;5092712;28;20572;-79
2023/02/18 09:48:46;;;;;;;6.47;2.13;;;11.50;99.90;;;;;;5079819;28;20229;-84
2023/02/18 09:51:16;;;;;;;9.70;2.17;;;11.50;99.90;;;;;;5089633;28;20194;-80
2023/02/18 09:53:45;;;;;;;10.83;2.30;;;11.40;99.90;;;;;;5092547;28;20661;-82
2023/02/18 09:56:15;;;;;;;5.10;1.70;;;11.40;99.90;;;;;;5091838;28;20207;-79
2023/02/18 09:58:43;;;;;;;8.93;2.20;;;11.50;99.90;;;;;;5090502;28;20201;-81
2023/02/18 10:01:17;;;;;;;6.13;2.10;;;11.60;99.90;;;;;;5082792;28;20215;-80
2023/02/18 10:03:44;;;;;;;4.63;1.90;;;11.60;99.90;;;;;;5083387;28;20205;-83
2023/02/18 10:06:18;;;;;;;8.17;2.03;;;11.50;99.90;;;;;;5088974;28;20210;-79
2023/02/18 10:08:48;;;;;;;11.90;2.07;;;11.60;99.90;;;;;;5093270;28;20232;-81
2023/02/18 10:11:17;;;;;;;9.23;2.10;;;11.60;99.90;;;;;;5091662;28;20242;-81
2023/02/18 10:13:47;;;;;;;8.07;1.70;;;11.70;99.90;;;;;;5091869;28;20213;-77
2023/02/18 10:16:18;;;;;;;4.53;1.40;;;11.60;99.90;;;;;;5092056;28;20290;-79
2023/02/18 10:18:48;;;;;;;9.43;2.20;;;11.60;99.90;;;;;;5092882;28;20207;-77
2023/02/18 10:21:17;;;;;;;12.57;2.00;;;11.70;99.90;;;;;;5092106;28;20207;-80
2023/02/18 10:23:57;;;;;;;9.73;1.97;;;11.70;99.90;;;;;;5092720;28;20203;-79
2023/02/18 10:26:25;;;;;;;8.87;2.60;;;11.70;99.90;;;;;;5093528;28;20203;-77
2023/02/18 10:28:52;;;;;;;10.00;2.40;;;11.70;99.90;;;;;;5092407;28;20233;-79
2023/02/18 10:31:25;;;;;;;10.53;2.27;;;11.70;99.90;;;;;;5092823;28;20210;-78
2023/02/18 10:33:57;;;;;;;8.53;2.30;;;11.70;99.90;;;;;;5092980;28;20204;-79
2023/02/18 10:36:26;;;;;;;5.30;1.80;;;11.70;99.90;;;;;;5092832;28;20213;-78
2023/02/18 10:39:35;;;;;;;9.03;2.40;;;11.70;99.90;;;;;;5093015;28;20203;-77
2023/02/18 10:42:16;;;;;;;7.40;2.10;;;11.80;99.90;;;;;;5087126;28;20211;-77
2023/02/18 10:44:55;;;;;;;7.17;1.60;;;11.80;99.90;;;;;;5093537;28;20212;-79
2023/02/18 10:47:37;;;;;;;9.27;2.53;;;11.80;99.90;;;;;;5092851;28;20577;-79
2023/02/18 10:50:10;;;;;;;7.20;1.90;;;11.80;99.90;;;;;;5092263;28;20222;-79
2023/02/18 10:52:40;;;;;;;7.43;1.87;;;11.80;99.90;;;;;;5092837;28;20215;-81
2023/02/18 10:55:10;;;;;;;8.30;2.00;;;11.80;99.90;;;;;;5092607;28;20588;-80
2023/02/18 10:57:47;;;;;;;9.20;2.20;;;11.80;99.90;;;;;;5092017;28;20210;-78
2023/02/18 11:00:19;;;;;;;9.13;2.27;;;11.80;99.90;;;;;;5091990;28;20204;-80
2023/02/18 11:02:47;;;;;;;7.37;2.47;;;11.90;99.90;;;;;;5092727;28;20533;-80
2023/02/18 11:05:23;;;;;;;7.80;1.93;;;11.90;99.90;;;;;;5092572;28;20210;-77
2023/02/18 11:07:53;;;;;;;6.53;1.93;;;11.90;99.90;;;;;;5092376;28;20203;-78
2023/02/18 11:10:25;;;;;;;7.03;2.27;;;11.90;99.90;;;;;;5092594;28;20237;-81
2023/02/18 11:12:57;;;;;;;11.30;1.77;;;11.90;99.90;;;;;;5095875;28;20222;-78
2023/02/18 11:15:26;;;;;;;7.57;2.10;;;11.90;99.90;;;;;;5096277;28;20225;-80
2023/02/18 11:17:54;;;;;;;12.77;2.93;;;12.00;99.90;;;;;;5096285;28;20206;-78
2023/02/18 11:20:25;;;;;;;8.93;2.77;;;12.00;99.90;;;;;;5094506;28;20225;-76
2023/02/18 11:22:56;;;;;;;6.47;2.40;;;12.10;99.90;;;;;;5085792;28;20215;-79
2023/02/18 11:25:25;;;;;;;11.60;2.20;;;12.10;99.90;;;;;;5086686;28;20210;-80
2023/02/18 11:27:56;;;;;;;9.70;2.70;;;12.10;99.90;;;;;;5095825;28;20662;-78
2023/02/18 11:30:26;;;;;;;8.10;2.23;;;12.10;99.90;;;;;;5096035;28;20211;-78
2023/02/18 11:32:56;;;;;;;9.90;2.43;;;12.10;99.90;;;;;;5087235;28;20231;-79
2023/02/18 11:35:25;;;;;;;7.97;2.47;;;12.20;99.90;;;;;;5095556;28;20215;-80
2023/02/18 11:37:53;;;;;;;9.07;2.30;;;12.20;99.90;;;;;;5095799;28;20207;-79
2023/02/18 11:40:23;;;;;;;10.13;2.53;;;12.20;99.90;;;;;;5081999;28;20211;-78
2023/02/18 11:42:50;;;;;;;7.57;2.03;;;12.30;99.90;;;;;;5095655;28;20216;-77
2023/02/18 11:45:29;;;;;;;4.77;1.97;;;12.30;99.90;;;;;;5095405;28;20219;-80
2023/02/18 11:48:01;;;;;;;11.93;2.33;;;12.30;99.90;;;;;;5095665;28;20228;-79
2023/02/18 11:50:32;;;;;;;11.07;2.70;;;12.40;99.90;;;;;;5095301;28;20222;-81
2023/02/18 11:52:59;;;;;;;12.40;2.60;;;12.40;99.90;;;;;;5095068;28;20204;-79
2023/02/18 11:55:29;;;;;;;7.63;2.00;;;12.50;99.90;;;;;;5094737;28;20204;-79
2023/02/18 11:57:58;;;;;;;9.67;1.97;;;12.50;99.90;;;;;;5095081;28;20204;-78
2023/02/18 12:00:37;;;;;;;6.03;2.47;;;12.50;99.90;;;;;;5094679;28;20212;-79
2023/02/18 12:03:15;;;;;;;8.10;2.30;;;12.50;99.90;;;;;;5095454;28;20673;-78
2023/02/18 12:05:44;;;;;;;8.90;2.20;;;12.50;99.90;;;;;;5095006;28;20206;-79
2023/02/18 12:08:17;;;;;;;14.77;2.70;;;12.50;99.90;;;;;;5094498;28;20216;-79
2023/02/18 12:10:49;;;;;;;7.53;2.30;;;12.50;99.90;;;;;;5094423;28;20208;-80
2023/02/18 12:13:24;;;;;;;9.03;2.27;;;12.60;99.90;;;;;;5095088;28;20200;-79
2023/02/18 12:16:03;;;;;;;8.33;2.13;;;12.50;99.90;;;;;;5095013;28;20206;-78
2023/02/18 12:18:49;;;;;;;11.23;2.37;;;12.50;99.90;;;;;;5093596;28;20215;-77
2023/02/18 12:21:27;;;;;;;9.97;2.20;;;12.60;99.90;;;;;;5082485;28;20277;-77
2023/02/18 12:24:04;;;;;;;4.90;2.10;;;12.60;99.90;;;;;;5082852;28;20197;-80
2023/02/18 12:26:40;;;;;;;8.37;2.27;;;12.60;99.90;;;;;;5085295;28;20238;-78
2023/02/18 12:29:30;;;;;;;14.00;2.53;;;12.60;99.90;;;;;;5087300;28;20733;-80
2023/02/18 12:32:10;;;;;;;7.93;2.13;;;12.60;99.90;;;;;;5094398;28;20563;-79
2023/02/18 12:34:54;;;;;;;6.63;2.37;;;12.50;99.90;;;;;;5094814;28;20208;-81
2023/02/18 12:37:44;;;;;;;7.63;2.38;;;12.50;99.90;;;;;;5093980;28;20433;-76
2023/02/18 12:40:35;;;;;;;5.87;2.50;;;12.50;99.90;;;;;;5094063;28;20207;-78
2023/02/18 12:43:14;;;;;;;13.17;2.60;;;12.40;99.90;;;;;;5094285;28;20227;-81
2023/02/18 12:46:21;;;;;;;9.03;2.63;;;12.30;99.90;;;;;;5093913;28;20212;-80
2023/02/18 12:49:06;;;;;;;8.43;2.10;;;12.30;99.90;;;;;;5051746;28;20236;-79
2023/02/18 12:51:45;;;;;;;9.80;2.90;;;12.20;99.90;;;;;;5092888;28;20200;-78
2023/02/18 12:54:47;;;;;;;7.63;2.43;;;12.00;99.90;;;;;;5094453;28;20254;-75
2023/02/18 12:57:31;;;;;;;9.43;2.73;;;11.90;99.90;;;;;;5094398;28;20213;-82
2023/02/18 13:00:31;;;;;;;5.77;2.10;;;11.80;99.90;;;;;;5093997;28;20199;-80
2023/02/18 13:03:21;;;;;;;13.30;2.67;;;11.80;99.90;;;;;;5094244;28;20210;-80
2023/02/18 13:06:03;;;;;;;10.35;3.42;;;11.70;99.90;;;;;;5092835;28;20472;-80
2023/02/18 13:08:41;;;;;;;8.33;2.40;;;11.80;99.90;;;;;;5094145;28;20211;-76